This is the latest recevied weather packets stored in our database for station/object K8FJG-13. If no packets are shown the sender has not sent any weather packets the latest 1 day(s).
| Time | Temp. | Humidity | Pressure | Rain* | Wind** | Luminosity | Snow |
|---|---|---|---|---|---|---|---|
| 1778011169 | 12.78° C | 92% | 963.6 hPa | - | 0.89 m/s, 299° | - | - |
| 1778010566 | 12.78° C | 91% | 963.7 hPa | - | 0.89 m/s, 287° | - | - |
| 1778009963 | 13.33° C | 91% | 963.6 hPa | - | 0.89 m/s, 293° | - | - |
| 1778009359 | 13.33° C | 90% | 963.8 hPa | - | 0.45 m/s, 305° | - | - |
| 1778008756 | 13.33° C | 89% | 963.7 hPa | - | 0.89 m/s, 269° | - | - |
| 1778008153 | 13.89° C | 88% | 963.8 hPa | - | 0.89 m/s, 276° | - | - |
| 1778007550 | 14.44° C | 86% | 963.8 hPa | - | 0.89 m/s, 284° | - | - |
| 1778006947 | 15° C | 81% | 963.8 hPa | - | 1.34 m/s, 330° | - | - |
| 1778006344 | 15.56° C | 77% | 963.9 hPa | - | 0.89 m/s, 286° | - | - |
| 1778005741 | 15.56° C | 76% | 963.9 hPa | - | 1.79 m/s, 292° | - | - |
| 1778005137 | 15.56° C | 76% | 963.8 hPa | - | 0.89 m/s, 320° | - | - |
| 1778004534 | 15.56° C | 76% | 963.8 hPa | - | 0.89 m/s, 295° | - | - |
| 1778003931 | 15.56° C | 75% | 963.8 hPa | - | 1.34 m/s, 239° | - | - |
| 1778003328 | 15.56° C | 75% | 963.7 hPa | - | 1.79 m/s, 281° | - | - |
| 1778002725 | 15.56° C | 75% | 963.8 hPa | - | 1.34 m/s, 281° | - | - |
| 1778002121 | 16.11° C | 74% | 963.6 hPa | - | 1.34 m/s, 306° | - | - |
| 1778001518 | 16.11° C | 74% | 963.5 hPa | - | 0.89 m/s, 290° | - | - |
| 1778000915 | 15.56° C | 74% | 963.4 hPa | - | 2.24 m/s, 281° | - | - |
| 1778000312 | 15.56° C | 74% | 963.5 hPa | - | 2.24 m/s, 283° | - | - |
| 1777999709 | 16.11° C | 72% | 963.4 hPa | - | 1.79 m/s, 294° | - | - |
| 1777999106 | 17.22° C | 70% | 963.3 hPa | - | 2.24 m/s, 285° | - | - |
| 1777998503 | 18.89° C | 64% | 963.1 hPa | - | 2.24 m/s, 283° | - | - |
| 1777997900 | 20° C | 60% | 962.8 hPa | - | 2.68 m/s, 276° | - | - |
| 1777997296 | 20° C | 60% | 962.9 hPa | - | 1.34 m/s, 277° | - | - |
| 1777996693 | 20.56° C | 59% | 962.7 hPa | - | 1.79 m/s, 305° | - | - |
* Rain since midnight (hover to see other rain measurements)
** Current wind speed in m/s (hover to see current wind gust speed)